logo
Rechercher aéroport 
image banner adimage banner adimage banner ad
image banner ad

FAAP - Aviators Paradise

Situé à Ifafi, South Africa

ICAO - , IATA -

Données fournies par Airmate  

Information générale

Coordonnées: S25°41'38" E27°46'57"
Élévation : 3800 feet MSL.
 
Voir autres Aéroports à Mpumalanga

Données opérationnelles

Special qualification required
Heure actuelle UTC:
Heure actuelle locale:
Météo à : FALA - Lanseria International ( 31 km )
METAR: FALA 180000Z AUTO 00000KT //// ///////// 14/02 Q1026 NOSIG
TAF: TAF FALA 172200Z 1800/1824 VRB03KT CAVOK TX26/1813Z TN10/1803Z
Voir NOTAMs / SUP AIP / TFR affectant cet aéroport [VIEW]
Fréquences de communication: [VIEW]

Pistes:

Identifiant RWYQFULongueur (ft)Largeur (ft)SurfaceLDA (ft)
03246133UNK
21246133UNK

Coordonnées de l'aéroport

Adresse: Ifafi South Africa

Vue satellite de FAAP